Terminal Aerodrome Forecast
Issued by NWS Boston, MA

Home | Current Version | Previous Version | Text Only | Print | Product List | Glossary On
Versions: 1 2 3 4 5 6 7 8 9 10 11 12 13 14 15 16 17 18 19 20 21 22 23 24 25 26 27 28 29 30 31 32 33 34 35 36 37 38 39 40 41 42 43 44 45 46 47 48
000
FTUS41 KBOX 070916 AAC
TAFBOS
TAF AMD
KBOS 070916Z 0709/0812 09014KT P6SM -RA BKN023 OVC030
     FM071100 06005KT P6SM -RA OVC015
     FM071300 06004KT P6SM VCSH OVC015
     FM071400 VRB03KT P6SM OVC015
     FM072200 23004KT P6SM BKN020
     FM080100 24006KT P6SM BKN140=

USA.gov is the U.S. government's official web portal to all federal, state and local government web resources and services.